Time;durP1;ratioP1;P1;durP2;ratioP2;P2;SDS_P1;SDS_P2;PMS_P1;PMS_P2;Temp;Humidity;BMP_temperature;BMP_pressure;BME280_temperature;BME280_humidity;BME280_pressure;Samples;Min_cycle;Max_cycle;Signal;HPM_P1;HPM_P2
2022/01/09 00:01:25;;;;;;;11.60;8.30;;;0.10;99.90;;;;;;4931379;29;20912;-81
2022/01/09 00:03:51;;;;;;;10.07;8.85;;;0.10;99.90;;;;;;4930030;29;20485;-82
2022/01/09 00:06:18;;;;;;;11.60;8.90;;;0.10;99.90;;;;;;4931957;29;20490;-82
2022/01/09 00:08:46;;;;;;;9.80;8.80;;;0.00;99.90;;;;;;4931997;29;20390;-82
2022/01/09 00:11:18;;;;;;;12.73;8.87;;;0.00;99.90;;;;;;4932799;29;20396;-82
2022/01/09 00:13:45;;;;;;;13.57;9.35;;;0.00;99.90;;;;;;4932650;29;20418;-83
2022/01/09 00:16:10;;;;;;;11.18;8.88;;;0.00;99.90;;;;;;4932607;29;20386;-83
2022/01/09 00:18:36;;;;;;;10.93;8.63;;;0.00;99.90;;;;;;4932509;29;20555;-82
2022/01/09 00:21:06;;;;;;;10.47;8.80;;;0.00;99.90;;;;;;4932144;29;20933;-83
2022/01/09 00:23:35;;;;;;;9.80;8.68;;;0.00;99.90;;;;;;4932466;29;20432;-82
2022/01/09 00:26:01;;;;;;;10.13;8.77;;;0.00;99.90;;;;;;4934858;29;21326;-82
2022/01/09 00:28:27;;;;;;;10.57;8.40;;;0.00;99.90;;;;;;4936664;29;20406;-82
2022/01/09 00:30:53;;;;;;;9.60;7.90;;;0.00;99.90;;;;;;4937732;28;20409;-82
2022/01/09 00:33:21;;;;;;;12.98;8.95;;;0.00;99.90;;;;;;4931649;29;20431;-82
2022/01/09 00:35:49;;;;;;;9.27;8.20;;;-0.10;99.90;;;;;;4944695;29;20414;-81
2022/01/09 00:38:14;;;;;;;11.10;8.38;;;0.00;99.90;;;;;;4934180;29;20402;-82
2022/01/09 00:40:40;;;;;;;11.00;8.27;;;0.00;99.90;;;;;;4934483;29;20436;-82
2022/01/09 00:43:09;;;;;;;10.00;7.53;;;0.00;99.90;;;;;;4934131;29;20482;-81
2022/01/09 00:45:40;;;;;;;11.70;7.93;;;0.00;99.90;;;;;;4934035;29;20398;-83
2022/01/09 00:48:07;;;;;;;10.67;7.97;;;0.00;99.90;;;;;;4934596;29;20458;-82
2022/01/09 00:50:36;;;;;;;10.73;7.93;;;-0.10;99.90;;;;;;4931528;29;20426;-82
2022/01/09 00:53:06;;;;;;;9.63;7.25;;;0.00;99.90;;;;;;4934590;29;20413;-82
2022/01/09 00:55:32;;;;;;;9.80;7.30;;;0.00;99.90;;;;;;4936679;29;20413;-82
2022/01/09 00:57:58;;;;;;;10.83;7.67;;;0.00;99.90;;;;;;4942856;28;20536;-81
2022/01/09 01:00:24;;;;;;;9.63;7.33;;;0.00;99.90;;;;;;4935865;29;20393;-82
2022/01/09 01:02:49;;;;;;;10.95;7.38;;;0.00;99.90;;;;;;4935145;29;20785;-82
2022/01/09 01:05:16;;;;;;;10.30;7.18;;;0.00;99.90;;;;;;4933286;29;20731;-82
2022/01/09 01:07:43;;;;;;;8.38;7.00;;;0.00;99.90;;;;;;4930699;29;20427;-81
2022/01/09 01:10:09;;;;;;;9.90;7.20;;;0.00;99.90;;;;;;4933971;28;20937;-81
2022/01/09 01:12:35;;;;;;;9.80;7.25;;;0.00;99.90;;;;;;4931034;29;20483;-81
2022/01/09 01:15:01;;;;;;;10.18;7.10;;;0.00;99.90;;;;;;4934909;29;20830;-81
2022/01/09 01:17:26;;;;;;;9.43;7.70;;;0.00;99.90;;;;;;4936727;29;20409;-81
2022/01/09 01:19:53;;;;;;;9.90;7.40;;;0.10;99.90;;;;;;4933461;29;20876;-83
2022/01/09 01:22:19;;;;;;;8.10;6.70;;;0.10;99.90;;;;;;4934662;29;20402;-81
2022/01/09 01:24:46;;;;;;;9.43;6.95;;;0.10;99.90;;;;;;4935707;29;20417;-82
2022/01/09 01:27:12;;;;;;;9.43;7.60;;;0.20;99.90;;;;;;4933573;29;20771;-81
2022/01/09 01:29:38;;;;;;;10.70;7.28;;;0.30;99.90;;;;;;4934039;28;20390;-82
2022/01/09 01:32:05;;;;;;;11.48;8.38;;;0.30;99.90;;;;;;4934030;29;20386;-81
2022/01/09 01:34:33;;;;;;;8.13;7.20;;;0.30;99.90;;;;;;4933192;29;20402;-83
2022/01/09 01:36:59;;;;;;;10.73;8.52;;;0.30;99.90;;;;;;4933363;29;20434;-81
2022/01/09 01:39:25;;;;;;;9.10;8.18;;;0.30;99.90;;;;;;4933439;29;20390;-81
2022/01/09 01:41:51;;;;;;;10.02;8.98;;;0.40;99.90;;;;;;4933969;29;20902;-81
2022/01/09 01:44:16;;;;;;;10.05;8.48;;;0.50;99.90;;;;;;4932108;29;20493;-81
2022/01/09 01:46:42;;;;;;;11.87;8.67;;;0.50;99.90;;;;;;4935223;29;20438;-81
2022/01/09 01:49:11;;;;;;;10.57;8.93;;;0.50;99.90;;;;;;4936691;29;20390;-80
2022/01/09 01:51:43;;;;;;;10.23;9.00;;;0.50;99.90;;;;;;4931605;29;20403;-81
2022/01/09 01:54:13;;;;;;;11.50;9.53;;;0.60;99.90;;;;;;4930628;29;20403;-81
2022/01/09 01:56:39;;;;;;;12.15;9.05;;;0.60;99.90;;;;;;4932557;29;20465;-81
2022/01/09 01:59:05;;;;;;;10.43;9.23;;;0.70;99.90;;;;;;4933938;29;20386;-83
2022/01/09 02:01:31;;;;;;;12.18;8.98;;;0.70;99.90;;;;;;4932790;29;20382;-83
2022/01/09 02:03:57;;;;;;;10.68;9.20;;;0.70;99.90;;;;;;4933346;29;20903;-84
2022/01/09 02:06:23;;;;;;;11.55;9.52;;;0.70;99.90;;;;;;4932980;28;20438;-82
2022/01/09 02:08:49;;;;;;;11.23;8.95;;;0.70;99.90;;;;;;4929827;29;20533;-82
2022/01/09 02:11:14;;;;;;;11.07;9.13;;;0.70;99.90;;;;;;4931330;29;20398;-82
2022/01/09 02:13:43;;;;;;;11.50;9.77;;;0.70;99.90;;;;;;4935104;29;20436;-83
2022/01/09 02:16:16;;;;;;;11.63;9.57;;;0.70;99.90;;;;;;4934932;28;20496;-84
2022/01/09 02:18:43;;;;;;;10.60;9.40;;;0.60;99.90;;;;;;4931739;29;20409;-84
2022/01/09 02:21:10;;;;;;;10.88;9.50;;;0.70;99.90;;;;;;4933281;29;20386;-84
2022/01/09 02:23:38;;;;;;;13.07;9.98;;;0.70;99.90;;;;;;4931341;29;20386;-84
2022/01/09 02:26:04;;;;;;;12.55;9.68;;;0.70;99.90;;;;;;4932857;29;20394;-83
2022/01/09 02:28:29;;;;;;;11.95;9.82;;;0.70;99.90;;;;;;4931046;29;20417;-84
2022/01/09 02:30:55;;;;;;;12.70;9.90;;;0.70;99.90;;;;;;4929493;29;20397;-82
2022/01/09 02:33:21;;;;;;;11.23;9.63;;;0.60;99.90;;;;;;4931960;29;20401;-83
2022/01/09 02:35:53;;;;;;;12.13;9.23;;;0.60;99.90;;;;;;4934281;29;20382;-83
2022/01/09 02:38:19;;;;;;;10.53;9.33;;;0.60;99.90;;;;;;4933204;29;20394;-82
2022/01/09 02:40:53;;;;;;;10.87;9.27;;;0.60;99.90;;;;;;4933112;29;20392;-83
2022/01/09 02:43:20;;;;;;;11.82;9.43;;;0.60;99.90;;;;;;4932774;28;20923;-83
2022/01/09 02:45:51;;;;;;;13.45;9.60;;;0.60;99.90;;;;;;4930377;29;20460;-81
2022/01/09 02:48:16;;;;;;;11.70;9.65;;;0.60;99.90;;;;;;4924980;29;20434;-83
2022/01/09 02:50:54;;;;;;;11.73;9.80;;;0.50;99.90;;;;;;4931848;29;20500;-83
2022/01/09 02:53:20;;;;;;;12.48;9.52;;;0.50;99.90;;;;;;4932714;29;20448;-82
2022/01/09 02:55:46;;;;;;;12.23;9.90;;;0.50;99.90;;;;;;4935443;28;20478;-83
2022/01/09 02:58:13;;;;;;;10.95;9.85;;;0.50;99.90;;;;;;4935164;29;20417;-83
2022/01/09 03:00:42;;;;;;;14.02;11.02;;;0.40;99.90;;;;;;4935030;29;20404;-84
2022/01/09 03:03:08;;;;;;;13.90;11.02;;;0.40;99.90;;;;;;4940635;29;20425;-83
2022/01/09 03:05:34;;;;;;;13.47;10.30;;;0.40;99.90;;;;;;4929885;29;20909;-83
2022/01/09 03:08:00;;;;;;;12.13;10.20;;;0.40;99.90;;;;;;4932584;29;20423;-82
2022/01/09 03:10:25;;;;;;;14.98;10.70;;;0.40;99.90;;;;;;4928594;29;20395;-82
2022/01/09 03:12:55;;;;;;;12.55;10.13;;;0.40;99.90;;;;;;4932115;29;20397;-82
2022/01/09 03:15:21;;;;;;;12.15;10.75;;;0.40;99.90;;;;;;4938418;29;20396;-83
2022/01/09 03:17:47;;;;;;;13.03;11.23;;;0.40;99.90;;;;;;4947135;28;20405;-83
2022/01/09 03:20:16;;;;;;;16.50;11.63;;;0.30;99.90;;;;;;4933354;29;20405;-82
2022/01/09 03:22:43;;;;;;;14.37;10.83;;;0.40;99.90;;;;;;4940291;29;20404;-82
2022/01/09 03:25:09;;;;;;;13.15;10.55;;;0.30;99.90;;;;;;4934138;29;20855;-84
2022/01/09 03:27:37;;;;;;;13.13;10.60;;;0.40;99.90;;;;;;4932468;29;20970;-82
2022/01/09 03:30:08;;;;;;;12.25;10.38;;;0.40;99.90;;;;;;4932122;29;20461;-82
2022/01/09 03:32:35;;;;;;;14.32;10.85;;;0.40;99.90;;;;;;4925787;29;20418;-84
2022/01/09 03:35:01;;;;;;;13.20;10.65;;;0.50;99.90;;;;;;4938109;29;20378;-83
2022/01/09 03:37:26;;;;;;;15.93;10.52;;;0.50;99.90;;;;;;4933771;29;20398;-83
2022/01/09 03:39:52;;;;;;;13.38;10.20;;;0.50;99.90;;;;;;4933601;28;20405;-82
2022/01/09 03:42:18;;;;;;;14.03;10.77;;;0.50;99.90;;;;;;4928478;29;20403;-82
2022/01/09 03:44:44;;;;;;;14.57;11.47;;;0.50;99.90;;;;;;4930840;29;20479;-82
2022/01/09 03:47:10;;;;;;;13.93;10.43;;;0.40;99.90;;;;;;4931853;29;20465;-83
2022/01/09 03:49:36;;;;;;;14.23;11.30;;;0.40;99.90;;;;;;4931625;29;20899;-83
2022/01/09 03:52:01;;;;;;;13.67;10.90;;;0.40;99.90;;;;;;4932565;28;20445;-83
2022/01/09 03:54:27;;;;;;;16.05;11.98;;;0.30;99.90;;;;;;4929228;29;20511;-83
2022/01/09 03:56:53;;;;;;;15.15;12.18;;;0.20;99.90;;;;;;4930243;29;20422;-82
2022/01/09 03:59:18;;;;;;;14.57;10.83;;;0.10;99.90;;;;;;4930806;29;20959;-82
2022/01/09 04:01:45;;;;;;;13.87;11.03;;;0.10;99.90;;;;;;4934443;29;20807;-82
2022/01/09 04:04:11;;;;;;;14.27;11.07;;;0.10;99.90;;;;;;4934824;29;20918;-82
2022/01/09 04:06:39;;;;;;;14.02;10.90;;;0.10;99.90;;;;;;4937372;29;20810;-82
2022/01/09 04:09:08;;;;;;;12.98;10.65;;;0.10;99.90;;;;;;4935918;29;20447;-83
2022/01/09 04:11:39;;;;;;;12.93;10.77;;;0.10;99.90;;;;;;4939012;29;20385;-82
2022/01/09 04:14:06;;;;;;;13.47;11.23;;;0.00;99.90;;;;;;4935121;28;20836;-82
2022/01/09 04:16:32;;;;;;;13.70;10.95;;;0.00;99.90;;;;;;4936816;29;20385;-82
2022/01/09 04:18:57;;;;;;;15.83;11.03;;;0.10;99.90;;;;;;4933977;29;20406;-82
2022/01/09 04:21:23;;;;;;;14.82;11.23;;;0.10;99.90;;;;;;4936177;29;20465;-83
2022/01/09 04:23:48;;;;;;;14.48;11.00;;;0.10;99.90;;;;;;4933939;29;20495;-83
2022/01/09 04:26:14;;;;;;;13.88;10.32;;;0.00;99.90;;;;;;4931879;29;21095;-82
2022/01/09 04:28:40;;;;;;;11.73;9.80;;;0.00;99.90;;;;;;4932646;29;20425;-83
2022/01/09 04:31:05;;;;;;;12.97;10.07;;;0.00;99.90;;;;;;4934534;29;20452;-83
2022/01/09 04:33:31;;;;;;;14.10;10.20;;;0.00;99.90;;;;;;4934928;29;20895;-82
2022/01/09 04:35:56;;;;;;;12.80;10.27;;;0.00;99.90;;;;;;4934544;29;20397;-82
2022/01/09 04:38:22;;;;;;;12.98;10.27;;;-0.10;99.90;;;;;;4932936;29;20419;-84
2022/01/09 04:40:48;;;;;;;11.50;10.05;;;-0.10;99.90;;;;;;4933559;29;20413;-83
2022/01/09 04:43:15;;;;;;;12.80;10.27;;;-0.10;99.90;;;;;;4934617;29;20401;-83
2022/01/09 04:45:41;;;;;;;12.93;10.00;;;-0.10;99.90;;;;;;4932995;29;20521;-83
2022/01/09 04:48:09;;;;;;;13.57;10.07;;;-0.10;99.90;;;;;;4935472;29;20950;-83
2022/01/09 04:50:38;;;;;;;13.00;9.60;;;-0.10;99.90;;;;;;4934043;29;20485;-83
2022/01/09 04:53:06;;;;;;;13.63;10.20;;;-0.10;99.90;;;;;;4934417;29;20417;-83
2022/01/09 04:55:35;;;;;;;11.60;9.68;;;0.00;99.90;;;;;;4939780;29;20482;-83
2022/01/09 04:58:01;;;;;;;11.88;9.43;;;0.00;99.90;;;;;;4935155;29;20394;-83
2022/01/09 05:00:27;;;;;;;12.50;9.80;;;0.00;99.90;;;;;;4933154;29;20734;-83
2022/01/09 05:02:53;;;;;;;12.23;9.98;;;0.00;99.90;;;;;;4934025;28;20410;-84
2022/01/09 05:05:19;;;;;;;10.70;9.10;;;0.00;99.90;;;;;;4933313;29;20398;-83
2022/01/09 05:07:44;;;;;;;12.73;9.43;;;0.00;99.90;;;;;;4934673;29;20406;-83
2022/01/09 05:10:11;;;;;;;10.48;9.27;;;0.00;99.90;;;;;;4931857;29;20524;-83
2022/01/09 05:12:38;;;;;;;13.50;9.25;;;-0.10;99.90;;;;;;4931913;29;20414;-83
2022/01/09 05:15:06;;;;;;;9.93;8.60;;;0.00;99.90;;;;;;4933235;29;20484;-83
2022/01/09 05:17:32;;;;;;;10.65;8.32;;;0.00;99.90;;;;;;4932629;29;20401;-83
2022/01/09 05:19:57;;;;;;;12.15;8.38;;;0.00;99.90;;;;;;4931328;29;20399;-84
2022/01/09 05:22:27;;;;;;;12.50;8.52;;;0.00;99.90;;;;;;4933803;29;20413;-83
2022/01/09 05:24:54;;;;;;;12.02;8.40;;;0.00;99.90;;;;;;4933959;29;20430;-83
2022/01/09 05:27:21;;;;;;;12.73;9.07;;;0.10;99.90;;;;;;4934238;29;20504;-83
2022/01/09 05:29:47;;;;;;;11.20;8.68;;;0.10;99.90;;;;;;4934310;29;20874;-83
2022/01/09 05:32:13;;;;;;;11.23;8.73;;;0.10;99.90;;;;;;4934001;29;20982;-84
2022/01/09 05:34:38;;;;;;;12.93;8.05;;;0.10;99.90;;;;;;4930391;29;20935;-83
2022/01/09 05:37:05;;;;;;;12.70;8.83;;;0.10;99.90;;;;;;4931906;29;20406;-84
2022/01/09 05:39:31;;;;;;;10.93;8.00;;;0.10;99.90;;;;;;4932899;29;20444;-83
2022/01/09 05:41:58;;;;;;;11.55;7.90;;;0.20;99.90;;;;;;4931212;29;20788;-83
2022/01/09 05:44:23;;;;;;;11.18;8.30;;;0.30;99.90;;;;;;4932562;29;20394;-83
2022/01/09 05:46:49;;;;;;;10.33;8.17;;;0.40;99.90;;;;;;4930809;29;20414;-84
2022/01/09 05:49:15;;;;;;;9.10;7.57;;;0.30;99.90;;;;;;4930937;29;20413;-82
2022/01/09 05:51:41;;;;;;;10.57;7.50;;;0.40;99.90;;;;;;4925564;29;20390;-83
2022/01/09 05:54:06;;;;;;;11.33;7.33;;;0.30;99.90;;;;;;4932908;29;20390;-83
2022/01/09 05:56:32;;;;;;;9.97;7.60;;;0.40;99.90;;;;;;4932642;29;20428;-83
2022/01/09 05:58:58;;;;;;;12.83;7.80;;;0.40;99.90;;;;;;4932418;29;20802;-83
2022/01/09 06:01:23;;;;;;;10.07;8.02;;;0.40;99.90;;;;;;4931316;29;20434;-83
2022/01/09 06:03:49;;;;;;;9.20;7.35;;;0.40;99.90;;;;;;4931005;29;20908;-83
2022/01/09 06:06:14;;;;;;;9.33;6.93;;;0.50;99.90;;;;;;4931331;29;20401;-84
2022/01/09 06:08:40;;;;;;;10.60;7.40;;;0.50;99.90;;;;;;4947211;28;20984;-83
2022/01/09 06:11:05;;;;;;;9.57;7.03;;;0.50;99.90;;;;;;4932263;29;20412;-83
2022/01/09 06:13:31;;;;;;;9.05;7.03;;;0.50;99.90;;;;;;4952065;29;20464;-84
2022/01/09 06:15:57;;;;;;;8.82;7.10;;;0.60;99.90;;;;;;4952435;29;20404;-83
2022/01/09 06:18:22;;;;;;;9.73;7.72;;;0.60;99.90;;;;;;4932189;29;21002;-84
2022/01/09 06:20:49;;;;;;;8.17;7.03;;;0.60;99.90;;;;;;4931403;29;20428;-83
2022/01/09 06:23:20;;;;;;;9.32;7.13;;;0.70;99.90;;;;;;4932006;29;20430;-83
2022/01/09 06:25:50;;;;;;;9.45;6.63;;;0.70;99.90;;;;;;4931935;29;20416;-84
2022/01/09 06:28:16;;;;;;;8.40;6.65;;;0.70;99.90;;;;;;4931169;29;20839;-82
2022/01/09 06:30:42;;;;;;;10.30;6.97;;;0.80;99.90;;;;;;4932480;29;20398;-85
2022/01/09 06:33:08;;;;;;;9.27;7.23;;;0.80;99.90;;;;;;4946783;29;20447;-83
2022/01/09 06:35:34;;;;;;;8.57;6.97;;;0.80;99.90;;;;;;4932292;29;20386;-82
2022/01/09 06:38:00;;;;;;;9.82;6.90;;;0.80;99.90;;;;;;4931721;29;20492;-83
2022/01/09 06:40:25;;;;;;;9.63;7.70;;;0.80;99.90;;;;;;4932557;29;20390;-83
2022/01/09 06:42:51;;;;;;;9.82;7.00;;;0.80;99.90;;;;;;4930525;29;20405;-83
2022/01/09 06:45:17;;;;;;;9.57;6.87;;;0.80;99.90;;;;;;4930951;29;20413;-84
2022/01/09 06:47:44;;;;;;;9.13;6.57;;;0.80;99.90;;;;;;4930675;29;20418;-84
2022/01/09 06:50:14;;;;;;;8.20;6.68;;;0.80;99.90;;;;;;4930359;29;20410;-84
2022/01/09 06:52:40;;;;;;;7.75;6.60;;;0.90;99.90;;;;;;4932499;29;20413;-83
2022/01/09 06:55:07;;;;;;;7.83;6.40;;;1.00;99.90;;;;;;4931817;29;20444;-82
2022/01/09 06:57:32;;;;;;;8.23;6.72;;;0.90;99.90;;;;;;4932464;29;20385;-83
2022/01/09 06:59:58;;;;;;;7.97;6.23;;;0.90;99.90;;;;;;4931787;29;20501;-83
2022/01/09 07:02:23;;;;;;;8.60;6.43;;;0.80;99.90;;;;;;4929874;29;20397;-84
2022/01/09 07:04:49;;;;;;;8.70;6.30;;;0.80;99.90;;;;;;4931866;29;20439;-82
2022/01/09 07:07:15;;;;;;;8.98;6.65;;;0.80;99.90;;;;;;4931123;28;20481;-84
2022/01/09 07:09:40;;;;;;;7.20;6.35;;;0.90;99.90;;;;;;4930356;29;20410;-83
2022/01/09 07:12:08;;;;;;;7.23;5.90;;;0.90;99.90;;;;;;4931662;29;20398;-83
2022/01/09 07:14:33;;;;;;;7.10;6.05;;;0.80;99.90;;;;;;4930909;29;20390;-83
2022/01/09 07:17:01;;;;;;;8.05;6.53;;;0.90;99.90;;;;;;4930239;29;20406;-85
2022/01/09 07:19:27;;;;;;;7.93;6.32;;;0.80;99.90;;;;;;4929997;29;20426;-84
2022/01/09 07:21:53;;;;;;;7.97;5.90;;;0.90;99.90;;;;;;4931197;29;20386;-83
2022/01/09 07:24:18;;;;;;;8.68;6.53;;;0.90;99.90;;;;;;4931188;29;20405;-83
2022/01/09 07:26:46;;;;;;;8.50;6.20;;;1.00;99.90;;;;;;4932463;29;20417;-83
2022/01/09 07:29:12;;;;;;;7.40;5.80;;;1.00;99.90;;;;;;4933090;29;20405;-82
2022/01/09 07:31:37;;;;;;;8.27;5.78;;;1.10;99.90;;;;;;4933432;28;20417;-84
2022/01/09 07:34:03;;;;;;;7.75;5.63;;;1.10;99.90;;;;;;4936713;29;20549;-84
2022/01/09 07:36:29;;;;;;;8.23;5.63;;;1.00;99.90;;;;;;4936580;29;20756;-82
2022/01/09 07:38:54;;;;;;;7.77;6.00;;;1.10;99.90;;;;;;4933084;29;20403;-82
2022/01/09 07:41:20;;;;;;;8.10;5.60;;;1.20;99.90;;;;;;4936424;29;20557;-83
2022/01/09 07:43:47;;;;;;;7.40;5.57;;;1.20;99.90;;;;;;4935472;29;20944;-82
2022/01/09 07:46:12;;;;;;;7.53;5.78;;;1.20;99.90;;;;;;4937663;29;20396;-84
2022/01/09 07:48:38;;;;;;;6.10;5.20;;;1.20;99.90;;;;;;4936141;29;20409;-84
2022/01/09 07:51:06;;;;;;;8.27;5.70;;;1.30;99.90;;;;;;4937091;29;20472;-83
2022/01/09 07:53:31;;;;;;;7.60;5.50;;;1.30;99.90;;;;;;4937309;29;20394;-83
2022/01/09 07:55:57;;;;;;;7.83;5.57;;;1.30;99.90;;;;;;4937109;28;20408;-82
2022/01/09 07:58:23;;;;;;;8.05;5.80;;;1.30;99.90;;;;;;4938584;29;20392;-83
2022/01/09 08:00:49;;;;;;;9.10;5.23;;;1.40;99.90;;;;;;4936133;29;20971;-82
2022/01/09 08:03:15;;;;;;;5.60;5.00;;;1.40;99.90;;;;;;4937682;29;20894;-83
2022/01/09 08:05:41;;;;;;;8.25;5.80;;;1.30;99.90;;;;;;4938203;29;20425;-83
2022/01/09 08:08:07;;;;;;;7.63;5.35;;;1.30;99.90;;;;;;4936853;28;20428;-83
2022/01/09 08:10:33;;;;;;;8.05;5.28;;;1.40;99.90;;;;;;4935025;29;20407;-82
2022/01/09 08:13:02;;;;;;;6.33;5.17;;;1.40;99.90;;;;;;4938505;29;20483;-83
2022/01/09 08:15:30;;;;;;;7.57;5.43;;;1.50;99.90;;;;;;4936350;29;20397;-83
2022/01/09 08:17:56;;;;;;;7.40;5.43;;;1.60;99.90;;;;;;4938138;28;20408;-83
2022/01/09 08:20:22;;;;;;;7.73;5.37;;;1.70;99.90;;;;;;4939057;29;20899;-83
2022/01/09 08:22:49;;;;;;;6.75;5.25;;;1.70;99.90;;;;;;4936134;29;20401;-84
2022/01/09 08:25:17;;;;;;;6.93;5.10;;;1.70;99.90;;;;;;4938816;29;20429;-82
2022/01/09 08:27:43;;;;;;;6.93;5.10;;;1.80;99.90;;;;;;4934164;29;20498;-84
2022/01/09 08:30:11;;;;;;;6.20;5.10;;;1.80;99.90;;;;;;4934410;29;20453;-83
2022/01/09 08:32:38;;;;;;;6.47;5.13;;;1.90;99.90;;;;;;4936031;29;20755;-83
2022/01/09 08:35:04;;;;;;;6.35;5.03;;;1.90;99.90;;;;;;4937160;29;20528;-83
2022/01/09 08:37:30;;;;;;;7.40;5.38;;;1.90;99.90;;;;;;4937320;29;20390;-83
2022/01/09 08:39:55;;;;;;;6.78;5.10;;;2.00;99.90;;;;;;4935271;29;20754;-81
2022/01/09 08:42:21;;;;;;;6.38;5.50;;;2.00;99.90;;;;;;4936709;29;20483;-82
2022/01/09 08:44:47;;;;;;;7.65;5.40;;;2.00;99.90;;;;;;4933977;29;20795;-82
2022/01/09 08:47:12;;;;;;;8.20;5.35;;;2.10;99.90;;;;;;4932433;29;20929;-81
2022/01/09 08:49:38;;;;;;;7.10;5.23;;;2.10;99.90;;;;;;4933242;29;20398;-82
2022/01/09 08:52:04;;;;;;;6.27;5.20;;;2.10;99.90;;;;;;4933739;28;20408;-82
2022/01/09 08:54:30;;;;;;;6.70;5.20;;;2.10;99.90;;;;;;4932622;29;20406;-81
2022/01/09 08:56:56;;;;;;;8.33;5.77;;;2.10;99.90;;;;;;4932497;29;20888;-81
2022/01/09 08:59:22;;;;;;;6.97;5.60;;;2.10;99.90;;;;;;4933183;29;20398;-81
2022/01/09 09:01:48;;;;;;;7.47;5.57;;;2.20;99.90;;;;;;4933829;29;20409;-81
2022/01/09 09:04:14;;;;;;;6.40;5.40;;;2.20;99.90;;;;;;4934061;29;20417;-84
2022/01/09 09:06:39;;;;;;;6.57;5.43;;;2.30;99.90;;;;;;4934033;29;20440;-81
2022/01/09 09:09:06;;;;;;;7.70;5.40;;;2.30;99.90;;;;;;4932465;29;20532;-84
2022/01/09 09:11:32;;;;;;;8.15;5.88;;;2.40;99.90;;;;;;4928283;29;20424;-81
2022/01/09 09:13:58;;;;;;;6.80;5.60;;;2.40;99.90;;;;;;4928143;29;20402;-84
2022/01/09 09:16:24;;;;;;;7.82;5.50;;;2.40;99.90;;;;;;4932537;29;20483;-83
2022/01/09 09:18:50;;;;;;;7.55;5.65;;;2.50;99.90;;;;;;4931126;29;20418;-84
2022/01/09 09:21:16;;;;;;;6.47;5.65;;;2.50;99.90;;;;;;4933427;29;20409;-83
2022/01/09 09:23:42;;;;;;;8.25;6.30;;;2.50;99.90;;;;;;4932965;29;20389;-83
2022/01/09 09:26:09;;;;;;;6.63;5.70;;;2.50;99.90;;;;;;4933546;29;20477;-83
2022/01/09 09:28:36;;;;;;;7.50;6.13;;;2.50;99.90;;;;;;4927063;29;20413;-83
2022/01/09 09:31:02;;;;;;;6.45;5.70;;;2.60;99.90;;;;;;4931573;29;20410;-83
2022/01/09 09:33:29;;;;;;;6.95;5.97;;;2.70;99.90;;;;;;4932587;29;20958;-85
2022/01/09 09:36:01;;;;;;;7.15;6.10;;;2.60;99.90;;;;;;4932716;29;20408;-83
2022/01/09 09:38:28;;;;;;;9.23;8.00;;;2.60;99.90;;;;;;4926181;29;20406;-83
2022/01/09 09:40:53;;;;;;;8.05;6.82;;;2.70;99.90;;;;;;4932139;29;20405;-83
2022/01/09 09:43:19;;;;;;;7.88;5.90;;;2.70;99.90;;;;;;4930883;29;20428;-83
2022/01/09 09:45:45;;;;;;;7.03;6.18;;;2.70;99.90;;;;;;4932262;29;20929;-83
2022/01/09 09:48:10;;;;;;;7.20;6.00;;;2.80;99.90;;;;;;4931502;29;20473;-84
2022/01/09 09:50:36;;;;;;;8.10;6.20;;;2.90;99.90;;;;;;4931219;29;20461;-83
2022/01/09 09:53:02;;;;;;;8.87;6.20;;;2.90;99.90;;;;;;4932220;29;21206;-83
2022/01/09 09:55:29;;;;;;;7.40;6.07;;;2.90;99.90;;;;;;4930896;29;20428;-84
2022/01/09 09:57:56;;;;;;;7.15;6.30;;;2.90;99.90;;;;;;4930986;29;20421;-83
2022/01/09 10:00:22;;;;;;;7.97;6.28;;;2.90;99.90;;;;;;4931178;29;20406;-83
2022/01/09 10:02:51;;;;;;;7.88;6.35;;;3.00;99.90;;;;;;4932518;29;20398;-83
2022/01/09 10:05:25;;;;;;;8.52;6.55;;;3.00;99.90;;;;;;4930387;29;20480;-83
2022/01/09 10:08:04;;;;;;;7.30;6.28;;;3.00;99.90;;;;;;4929889;29;20524;-83
2022/01/09 10:10:31;;;;;;;8.75;6.40;;;3.10;99.90;;;;;;4941764;29;20413;-82
2022/01/09 10:13:11;;;;;;;8.48;6.57;;;3.20;99.90;;;;;;4928484;29;20395;-84
2022/01/09 10:15:56;;;;;;;8.47;6.57;;;3.30;99.90;;;;;;4930564;29;20917;-83
2022/01/09 10:18:40;;;;;;;7.18;6.07;;;3.20;99.90;;;;;;4930903;28;20496;-83
2022/01/09 10:21:10;;;;;;;8.48;6.82;;;3.40;99.90;;;;;;4931511;29;20891;-83
2022/01/09 10:23:58;;;;;;;9.27;6.38;;;3.50;99.90;;;;;;4928919;29;20403;-84
2022/01/09 10:26:26;;;;;;;8.43;6.35;;;3.60;99.90;;;;;;4928334;29;20446;-83
2022/01/09 10:28:52;;;;;;;9.38;6.97;;;3.60;99.90;;;;;;4930192;29;20850;-83
2022/01/09 10:31:19;;;;;;;7.90;6.88;;;3.50;99.90;;;;;;4931510;29;20469;-83
2022/01/09 10:34:08;;;;;;;9.95;6.93;;;3.50;99.90;;;;;;4929149;29;20501;-83
2022/01/09 10:36:34;;;;;;;8.65;6.60;;;3.50;99.90;;;;;;4943409;29;20840;-84
2022/01/09 10:39:11;;;;;;;8.75;6.80;;;3.50;99.90;;;;;;4929563;29;21352;-83
2022/01/09 10:41:55;;;;;;;7.55;6.60;;;3.50;99.90;;;;;;4931003;29;20889;-83
2022/01/09 10:44:23;;;;;;;7.70;6.65;;;3.50;99.90;;;;;;4945726;29;20904;-83
2022/01/09 10:47:00;;;;;;;10.00;7.13;;;3.50;99.90;;;;;;4930881;29;20386;-83
2022/01/09 10:49:49;;;;;;;8.82;6.78;;;3.40;99.90;;;;;;4929351;29;20413;-83
2022/01/09 10:52:23;;;;;;;8.13;6.90;;;3.30;99.90;;;;;;4928935;29;20474;-83
2022/01/09 10:54:50;;;;;;;8.00;6.40;;;3.50;99.90;;;;;;4929935;29;20402;-83
2022/01/09 10:57:22;;;;;;;8.18;6.25;;;3.50;99.90;;;;;;4930633;29;20394;-82
2022/01/09 10:59:49;;;;;;;8.27;6.45;;;3.60;99.90;;;;;;4932491;29;20406;-81
2022/01/09 11:02:15;;;;;;;9.17;6.70;;;3.70;99.90;;;;;;4931683;29;20904;-82
2022/01/09 11:04:49;;;;;;;8.52;6.53;;;3.70;99.90;;;;;;4932255;29;20396;-84
2022/01/09 11:07:16;;;;;;;8.02;6.68;;;3.70;99.90;;;;;;4928702;29;20500;-82
2022/01/09 11:09:49;;;;;;;8.60;6.93;;;3.80;99.90;;;;;;4931021;29;20381;-83
2022/01/09 11:12:19;;;;;;;7.72;6.70;;;3.80;99.90;;;;;;4929707;29;20437;-83
2022/01/09 11:14:47;;;;;;;7.90;6.50;;;3.80;99.90;;;;;;4928960;29;20413;-83
2022/01/09 11:17:15;;;;;;;7.47;6.30;;;3.80;99.90;;;;;;4930546;29;20437;-83
2022/01/09 11:19:41;;;;;;;8.55;6.78;;;3.90;99.90;;;;;;4928293;29;20425;-83
2022/01/09 11:22:10;;;;;;;7.93;6.43;;;4.00;99.90;;;;;;4930306;29;20409;-83
2022/01/09 11:24:48;;;;;;;8.37;6.67;;;4.00;99.90;;;;;;4928941;29;20486;-84
2022/01/09 11:27:22;;;;;;;7.53;6.30;;;4.20;99.90;;;;;;4930172;29;20409;-84
2022/01/09 11:30:03;;;;;;;7.43;6.43;;;4.20;99.90;;;;;;4928659;29;20406;-83
2022/01/09 11:32:53;;;;;;;8.63;7.07;;;4.20;99.90;;;;;;4930000;29;20461;-83
2022/01/09 11:35:44;;;;;;;10.18;7.22;;;4.20;99.90;;;;;;4931296;29;20907;-83
2022/01/09 11:38:17;;;;;;;7.83;6.83;;;4.20;99.90;;;;;;4929143;29;20424;-83
2022/01/09 11:40:43;;;;;;;8.40;6.63;;;4.20;99.90;;;;;;4931237;29;20409;-83
2022/01/09 11:43:14;;;;;;;7.53;6.53;;;4.20;99.90;;;;;;4928523;29;20965;-83
2022/01/09 11:45:44;;;;;;;7.80;6.47;;;4.40;99.90;;;;;;4931303;29;20390;-83
2022/01/09 11:48:11;;;;;;;6.75;6.05;;;4.50;99.90;;;;;;4929082;29;20421;-83
2022/01/09 11:51:09;;;;;;;8.18;5.93;;;4.60;99.90;;;;;;4930981;29;20401;-83
2022/01/09 11:53:56;;;;;;;7.57;6.47;;;4.80;99.90;;;;;;4929278;29;20413;-84
2022/01/09 11:57:18;;;;;;;7.32;6.25;;;4.70;99.90;;;;;;4930767;28;20381;-83
2022/01/09 11:59:51;;;;;;;9.43;6.30;;;4.60;99.90;;;;;;4918821;29;20413;-84
2022/01/09 12:02:16;;;;;;;9.02;6.63;;;4.50;99.90;;;;;;4929278;29;20406;-83
2022/01/09 12:04:42;;;;;;;7.30;6.60;;;4.40;99.90;;;;;;4929905;29;20453;-82
2022/01/09 12:07:09;;;;;;;7.93;6.73;;;4.30;99.90;;;;;;4931261;29;20438;-83
2022/01/09 12:09:42;;;;;;;7.67;6.30;;;4.20;99.90;;;;;;4931365;28;20492;-83
2022/01/09 12:12:11;;;;;;;10.90;7.63;;;4.20;99.90;;;;;;4927156;29;20392;-83
2022/01/09 12:15:05;;;;;;;7.38;6.43;;;4.30;99.90;;;;;;4928938;29;20457;-83
2022/01/09 12:17:33;;;;;;;7.53;6.72;;;4.30;99.90;;;;;;4927839;29;20888;-83
2022/01/09 12:20:14;;;;;;;7.57;6.80;;;4.30;99.90;;;;;;4934900;28;20414;-83
2022/01/09 12:25:30;;;;;;;7.40;6.20;;;4.60;99.90;;;;;;4934811;29;20404;-84
2022/01/09 12:28:13;;;;;;;9.07;7.03;;;4.70;99.90;;;;;;4929005;29;20413;-84
2022/01/09 12:30:40;;;;;;;7.00;6.18;;;4.70;99.90;;;;;;4931983;29;20456;-84
2022/01/09 12:33:35;;;;;;;8.40;6.50;;;4.80;99.90;;;;;;4929839;29;20496;-84
2022/01/09 12:36:13;;;;;;;6.80;6.10;;;4.80;99.90;;;;;;4931532;29;20756;-82
2022/01/09 12:38:46;;;;;;;7.53;5.88;;;4.70;99.90;;;;;;4931649;29;20775;-83
2022/01/09 12:41:16;;;;;;;6.78;6.07;;;4.70;99.90;;;;;;4948441;29;20397;-84
2022/01/09 12:43:45;;;;;;;8.68;6.55;;;4.70;99.90;;;;;;4933733;29;20481;-84
2022/01/09 12:46:19;;;;;;;9.63;7.30;;;4.70;99.90;;;;;;4932351;29;20410;-83
2022/01/09 12:48:53;;;;;;;9.15;6.30;;;4.60;99.90;;;;;;4934160;29;20449;-84
2022/01/09 12:51:19;;;;;;;6.68;5.97;;;4.60;99.90;;;;;;4938204;29;20396;-83
2022/01/09 12:53:50;;;;;;;7.77;6.60;;;4.60;99.90;;;;;;4932146;29;20389;-84
2022/01/09 12:56:25;;;;;;;7.32;6.22;;;4.60;99.90;;;;;;4919071;29;20420;-83
2022/01/09 12:58:53;;;;;;;7.50;6.00;;;4.70;99.90;;;;;;4953416;28;20417;-83